Observation data for Silverton on 01/10/2018      Previous  Date  Next       Current Mesonet Observations  Soil Data  Daily Summary Page  Observations in Plain Language
KSVS 100600Z 23012KT 11/M02 A2983 RMK A01 T01071019  RH  042%=      5-min Rain = 0
KSVS 100605Z 23010KT 11/M02 A2983 RMK A01 T01051020  RH  042%=      5-min Rain = 0
KSVS 100610Z 23010KT 10/M02 A2982 RMK A01 T01001020  RH  044%=      5-min Rain = 0
KSVS 100615Z 23013KT 10/M02 A2982 RMK A01 T01021018  RH  043%=      5-min Rain = 0
KSVS 100620Z 23014KT 11/M02 A2982 RMK A01 T01061016  RH  043%=      5-min Rain = 0
KSVS 100625Z 23014KT 11/M02 A2981 RMK A01 T01071016  RH  043%=      5-min Rain = 0
KSVS 100630Z 23014KT 11/M02 A2981 RMK A01 T01061016  RH  043%=      5-min Rain = 0
KSVS 100635Z 23015KT 11/M02 A2981 RMK A01 T01071015  RH  043%=      5-min Rain = 0
KSVS 100640Z 22014KT 11/M02 A2981 RMK A01 T01061015  RH  043%=      5-min Rain = 0
KSVS 100645Z 23015KT 11/M02 A2981 RMK A01 T01051015  RH  044%=      5-min Rain = 0
KSVS 100650Z 23014KT 10/M02 A2981 RMK A01 T01041015  RH  044%=      5-min Rain = 0
KSVS 100655Z 23014G19KT 11/M01 A298 RMK A01 T01051014  RH  044%=      5-min Rain = 0
KSVS 100700Z 23014KT 11/M01 A298 RMK A01 T01051013  RH  044%=      5-min Rain = 0
KSVS 100705Z 23013G18KT 10/M01 A298 RMK A01 T01041013  RH  045%=      5-min Rain = 0
KSVS 100710Z 23014KT 10/M01 A298 RMK A01 T01041012  RH  045%=      5-min Rain = 0
KSVS 100715Z 23014KT 11/M01 A2979 RMK A01 T01051012  RH  045%=      5-min Rain = 0
KSVS 100720Z 23014KT 10/M01 A2979 RMK A01 T01021012  RH  045%=      5-min Rain = 0
KSVS 100725Z 22014KT 10/M01 A2979 RMK A01 T01031011  RH  045%=      5-min Rain = 0
KSVS 100730Z 23014G19KT 10/M01 A2979 RMK A01 T01031011  RH  045%=      5-min Rain = 0
KSVS 100735Z 22015KT 10/M01 A2979 RMK A01 T01021012  RH  046%=      5-min Rain = 0
KSVS 100740Z 22015KT 10/M01 A2979 RMK A01 T01031011  RH  046%=      5-min Rain = 0
KSVS 100745Z 22016KT 11/M01 A2979 RMK A01 T01051010  RH  045%=      5-min Rain = 0
KSVS 100750Z 22014G19KT 10/M01 A2979 RMK A01 T01031011  RH  046%=      5-min Rain = 0
KSVS 100755Z 22015G21KT 10/M01 A2979 RMK A01 T01011010  RH  046%=      5-min Rain = 0
KSVS 100800Z 22015KT 10/M01 A2979 RMK A01 T01021010  RH  046%=      5-min Rain = 0
KSVS 100805Z 22015KT 10/M01 A2979 RMK A01 T01011010  RH  047%=      5-min Rain = 0
KSVS 100810Z 22014G19KT 10/M01 A2979 RMK A01 T01011010  RH  047%=      5-min Rain = 0
KSVS 100815Z 22015KT 10/M01 A2979 RMK A01 T01011009  RH  047%=      5-min Rain = 0
KSVS 100820Z 22014G19KT 10/M01 A2979 RMK A01 T01031009  RH  046%=      5-min Rain = 0
KSVS 100825Z 23013G18KT 10/M01 A2979 RMK A01 T01021008  RH  047%=      5-min Rain = 0
KSVS 100830Z 23013KT 10/M01 A2979 RMK A01 T01011008  RH  047%=      5-min Rain = 0
KSVS 100835Z 23012KT 10/M01 A2978 RMK A01 T00981009  RH  048%=      5-min Rain = 0
KSVS 100840Z 23011KT 10/M01 A2978 RMK A01 T00961009  RH  049%=      5-min Rain = 0
KSVS 100845Z 23011KT 09/M01 A2978 RMK A01 T00941009  RH  049%=      5-min Rain = 0
KSVS 100850Z 23012KT 09/M01 A2978 RMK A01 T00941009  RH  049%=      5-min Rain = 0
KSVS 100855Z 22012KT 09/M01 A2977 RMK A01 T00941009  RH  049%=      5-min Rain = 0
KSVS 100900Z 22014KT 09/M01 A2977 RMK A01 T00941009  RH  049%=      5-min Rain = 0
KSVS 100905Z 22014G19KT 09/M01 A2977 RMK A01 T00931009  RH  049%=      5-min Rain = 0
KSVS 100910Z 22014KT 09/M01 A2977 RMK A01 T00931009  RH  049%=      5-min Rain = 0
KSVS 100915Z 22014G19KT 09/M01 A2977 RMK A01 T00931009  RH  049%=      5-min Rain = 0
KSVS 100920Z 23015KT 10/M01 A2977 RMK A01 T00961008  RH  049%=      5-min Rain = 0
KSVS 100925Z 23014G19KT 10/M01 A2976 RMK A01 T00991007  RH  048%=      5-min Rain = 0
KSVS 100930Z 23015G20KT 10/M01 A2976 RMK A01 T01011006  RH  048%=      5-min Rain = 0
KSVS 100935Z 23015G21KT 11/M01 A2976 RMK A01 T01051005  RH  047%=      5-min Rain = 0
KSVS 100940Z 22016G22KT 11/M01 A2976 RMK A01 T01071005  RH  046%=      5-min Rain = 0
KSVS 100945Z 22018KT 11/M00 A2976 RMK A01 T01101004  RH  046%=      5-min Rain = 0
KSVS 100950Z 22018G25KT 11/M00 A2976 RMK A01 T01111004  RH  046%=      5-min Rain = 0
KSVS 100955Z 22018G23KT 11/M01 A2976 RMK A01 T01111005  RH  045%=      5-min Rain = 0
KSVS 101000Z 22016G22KT 11/M01 A2976 RMK A01 T01081006  RH  046%=      5-min Rain = 0
KSVS 101005Z 23016G22KT 11/M01 A2976 RMK A01 T01051006  RH  047%=      5-min Rain = 0
KSVS 101010Z 23015G20KT 10/M01 A2976 RMK A01 T01021007  RH  047%=      5-min Rain = 0
KSVS 101015Z 23015KT 10/M01 A2976 RMK A01 T01001007  RH  048%=      5-min Rain = 0
KSVS 101020Z 23015KT 10/M01 A2976 RMK A01 T00971007  RH  049%=      5-min Rain = 0
KSVS 101025Z 23014G19KT 10/M01 A2976 RMK A01 T00951008  RH  049%=      5-min Rain = 0
KSVS 101030Z 23014KT 09/M01 A2975 RMK A01 T00941008  RH  049%=      5-min Rain = 0
KSVS 101035Z 23014KT 09/M01 A2975 RMK A01 T00931008  RH  050%=      5-min Rain = 0
KSVS 101040Z 23014KT 09/M01 A2975 RMK A01 T00911008  RH  050%=      5-min Rain = 0
KSVS 101045Z 23013KT 09/M01 A2975 RMK A01 T00901008  RH  051%=      5-min Rain = 0
KSVS 101050Z 23012G17KT 09/M01 A2975 RMK A01 T00881009  RH  051%=      5-min Rain = 0
KSVS 101055Z 23012KT 09/M01 A2974 RMK A01 T00861009  RH  052%=      5-min Rain = 0
KSVS 101100Z 23012KT 08/M01 A2974 RMK A01 T00841009  RH  052%=      5-min Rain = 0
KSVS 101105Z 23011KT 08/M01 A2974 RMK A01 T00791011  RH  054%=      5-min Rain = 0
KSVS 101110Z 24010KT 08/M01 A2974 RMK A01 T00771011  RH  054%=      5-min Rain = 0
KSVS 101115Z 24010KT 07/M01 A2974 RMK A01 T00741011  RH  055%=      5-min Rain = 0
KSVS 101120Z 24010KT 07/M01 A2974 RMK A01 T00711012  RH  056%=      5-min Rain = 0
KSVS 101125Z 24009KT 07/M01 A2974 RMK A01 T00681013  RH  057%=      5-min Rain = 0
KSVS 101130Z 24009KT 07/M01 A2975 RMK A01 T00651013  RH  058%=      5-min Rain = 0
KSVS 101135Z 24008KT 06/M01 A2974 RMK A01 T00641013  RH  058%=      5-min Rain = 0
KSVS 101140Z 23009KT 06/M01 A2974 RMK A01 T00631013  RH  059%=      5-min Rain = 0
KSVS 101145Z 24009KT 06/M01 A2975 RMK A01 T00631013  RH  059%=      5-min Rain = 0
KSVS 101150Z 23009KT 06/M01 A2975 RMK A01 T00641012  RH  059%=      5-min Rain = 0
KSVS 101155Z 23009KT 07/M01 A2975 RMK A01 T00661011  RH  058%=      5-min Rain = 0
KSVS 101200Z 23009KT 07/M01 A2975 RMK A01 T00681011  RH  058%=      5-min Rain = 0
KSVS 101205Z 23008KT 07/M01 A2974 RMK A01 T00681011  RH  058%=      5-min Rain = 0
KSVS 101210Z 22008KT 07/M01 A2975 RMK A01 T00671011  RH  058%=      5-min Rain = 0
KSVS 101215Z 23009KT 07/M01 A2974 RMK A01 T00671011  RH  058%=      5-min Rain = 0
KSVS 101220Z 23009KT 07/M01 A2974 RMK A01 T00681010  RH  058%=      5-min Rain = 0
KSVS 101225Z 24008KT 07/M01 A2974 RMK A01 T00681010  RH  058%=      5-min Rain = 0
KSVS 101230Z 23008KT 07/M01 A2974 RMK A01 T00661011  RH  059%=      5-min Rain = 0
KSVS 101235Z 22009KT 07/M01 A2974 RMK A01 T00661010  RH  059%=      5-min Rain = 0
KSVS 101240Z 21010KT 07/M01 A2974 RMK A01 T00721008  RH  057%=      5-min Rain = 0
KSVS 101245Z 21011KT 08/M01 A2974 RMK A01 T00781007  RH  055%=      5-min Rain = 0
KSVS 101250Z 21011KT 08/M01 A2974 RMK A01 T00771008  RH  055%=      5-min Rain = 0
KSVS 101255Z 21011KT 08/M01 A2974 RMK A01 T00781008  RH  055%=      5-min Rain = 0
KSVS 101300Z 22011KT 08/M01 A2974 RMK A01 T00811007  RH  055%=      5-min Rain = 0
KSVS 101305Z 22011KT 08/M01 A2974 RMK A01 T00841006  RH  054%=      5-min Rain = 0
KSVS 101310Z 22011KT 08/M01 A2974 RMK A01 T00841006  RH  054%=      5-min Rain = 0
KSVS 101315Z 21009KT 08/M01 A2973 RMK A01 T00821006  RH  054%=      5-min Rain = 0
KSVS 101320Z 21010KT 08/M01 A2973 RMK A01 T00811006  RH  054%=      5-min Rain = 0
KSVS 101325Z 21008KT 08/M01 A2973 RMK A01 T00791007  RH  055%=      5-min Rain = 0
KSVS 101330Z 20008KT 08/M01 A2973 RMK A01 T00781007  RH  056%=      5-min Rain = 0
KSVS 101335Z 21008G13KT 08/M01 A2973 RMK A01 T00781007  RH  056%=      5-min Rain = 0
KSVS 101340Z 21011G16KT 08/M00 A2972 RMK A01 T00821004  RH  055%=      5-min Rain = 0
KSVS 101345Z 21011KT 09/M00 A2972 RMK A01 T00871002  RH  054%=      5-min Rain = 0
KSVS 101350Z 21010KT 09/M00 A2972 RMK A01 T00901001  RH  053%=      5-min Rain = 0
KSVS 101355Z 21010KT 09/00 A2971 RMK A01 T009200-0  RH  053%=      5-min Rain = 0
KSVS 101400Z 21010KT 09/00 A2971 RMK A01 T00940001  RH  053%=      5-min Rain = 0
KSVS 101405Z 22011KT 10/00 A2972 RMK A01 T00960002  RH  052%=      5-min Rain = 0
KSVS 101410Z 22011KT 10/00 A2972 RMK A01 T01010004  RH  052%=      5-min Rain = 0
KSVS 101415Z 22011KT 10/01 A2972 RMK A01 T01040005  RH  051%=      5-min Rain = 0
KSVS 101420Z 22014KT 11/01 A2972 RMK A01 T01070006  RH  050%=      5-min Rain = 0
KSVS 101425Z 22011KT 11/01 A2972 RMK A01 T01070006  RH  050%=      5-min Rain = 0
KSVS 101430Z 22008KT 11/01 A2971 RMK A01 T01060006  RH  051%=      5-min Rain = 0
KSVS 101435Z 21009KT 11/01 A2971 RMK A01 T01060006  RH  050%=      5-min Rain = 0
KSVS 101440Z 21010KT 11/01 A2971 RMK A01 T01080006  RH  050%=      5-min Rain = 0
KSVS 101445Z 21009KT 11/01 A2971 RMK A01 T01080006  RH  050%=      5-min Rain = 0
KSVS 101450Z 21008KT 11/01 A2971 RMK A01 T01070007  RH  050%=      5-min Rain = 0
KSVS 101455Z 21009KT 11/01 A2971 RMK A01 T01070007  RH  050%=      5-min Rain = 0
KSVS 101500Z 22010KT 11/01 A2971 RMK A01 T01080007  RH  050%=      5-min Rain = 0
KSVS 101505Z 22010KT 11/01 A2971 RMK A01 T01110007  RH  049%=      5-min Rain = 0
KSVS 101510Z 22009KT 11/01 A2971 RMK A01 T01110007  RH  049%=      5-min Rain = 0
KSVS 101515Z 22007KT 11/01 A2971 RMK A01 T01090007  RH  050%=      5-min Rain = 0
KSVS 101520Z 21008KT 11/01 A2971 RMK A01 T01100007  RH  050%=      5-min Rain = 0
KSVS 101525Z 21007KT 11/01 A2971 RMK A01 T01120008  RH  049%=      5-min Rain = 0
KSVS 101530Z 22009KT 11/01 A297 RMK A01 T01130008  RH  049%=      5-min Rain = 0
KSVS 101535Z 23008KT 11/01 A2971 RMK A01 T01120008  RH  049%=      5-min Rain = 0
KSVS 101540Z 22009KT 11/01 A2971 RMK A01 T01090007  RH  050%=      5-min Rain = 0
KSVS 101545Z 22007KT 11/01 A297 RMK A01 T01060007  RH  051%=      5-min Rain = 0
KSVS 101550Z 23007KT 10/01 A2971 RMK A01 T01040006  RH  051%=      5-min Rain = 0
KSVS 101555Z 23006KT 10/01 A2971 RMK A01 T01030007  RH  052%=      5-min Rain = 0
KSVS 101600Z 22007KT 11/01 A297 RMK A01 T01050007  RH  051%=      5-min Rain = 0
KSVS 101605Z 21006G11KT 11/01 A297 RMK A01 T01080009  RH  051%=      5-min Rain = 0
KSVS 101610Z 21006KT 12/01 A297 RMK A01 T01170010  RH  049%=      5-min Rain = 0
KSVS 101615Z 22011KT 13/01 A297 RMK A01 T01330014  RH  045%=      5-min Rain = 0
KSVS 101620Z 22013KT 15/01 A297 RMK A01 T01470014  RH  041%=      5-min Rain = 0
KSVS 101625Z 21010G16KT 15/01 A2969 RMK A01 T01540014  RH  039%=      5-min Rain = 0
KSVS 101630Z 21012G17KT 16/01 A2969 RMK A01 T01590013  RH  038%=      5-min Rain = 0
KSVS 101635Z 21013KT 16/01 A2969 RMK A01 T01580012  RH  038%=      5-min Rain = 0
KSVS 101640Z 22015KT 16/01 A2969 RMK A01 T01590012  RH  037%=      5-min Rain = 0
KSVS 101645Z 23015KT 16/01 A2969 RMK A01 T01570012  RH  038%=      5-min Rain = 0
KSVS 101650Z 23015G21KT 16/01 A297 RMK A01 T01630013  RH  037%=      5-min Rain = 0
KSVS 101655Z 23015KT 16/01 A2969 RMK A01 T01640013  RH  036%=      5-min Rain = 0
KSVS 101700Z 23015G20KT 17/01 A2969 RMK A01 T01680012  RH  035%=      5-min Rain = 0
KSVS 101705Z 23014G19KT 17/01 A2969 RMK A01 T01720013  RH  035%=      5-min Rain = 0
KSVS 101710Z 23014G20KT 18/01 A2969 RMK A01 T01810013  RH  033%=      5-min Rain = 0
KSVS 101715Z 23015G20KT 18/01 A2969 RMK A01 T01820012  RH  032%=      5-min Rain = 0
KSVS 101720Z 22013KT 18/01 A2968 RMK A01 T01840012  RH  032%=      5-min Rain = 0
KSVS 101725Z 22013KT 19/01 A2968 RMK A01 T01880012  RH  031%=      5-min Rain = 0
KSVS 101730Z 23012G18KT 19/01 A2967 RMK A01 T01940012  RH  030%=      5-min Rain = 0
KSVS 101735Z 22012G17KT 20/01 A2967 RMK A01 T01980011  RH  029%=      5-min Rain = 0
KSVS 101740Z 22013G19KT 20/01 A2966 RMK A01 T02040010  RH  028%=      5-min Rain = 0
KSVS 101745Z 22015G21KT 21/01 A2966 RMK A01 T02090007  RH  026%=      5-min Rain = 0
KSVS 101750Z 22016KT 21/01 A2965 RMK A01 T02140006  RH  025%=      5-min Rain = 0
KSVS 101755Z 22015G24KT 22/01 A2965 RMK A01 T02190005  RH  024%=      5-min Rain = 0
KSVS 101800Z 23019G24KT 22/00 A2964 RMK A01 T02180002  RH  024%=      5-min Rain = 0
KSVS 101805Z 23017G23KT 22/00 A2964 RMK A01 T02230002  RH  023%=      5-min Rain = 0
KSVS 101810Z 23019G25KT 23/M00 A2963 RMK A01 T02251001  RH  023%=      5-min Rain = 0
KSVS 101815Z 23018G24KT 23/M00 A2963 RMK A01 T02281002  RH  022%=      5-min Rain = 0
KSVS 101820Z 23022G28KT 23/M00 A2963 RMK A01 T02281004  RH  022%=      5-min Rain = 0
KSVS 101825Z 23022G27KT 23/M01 A2962 RMK A01 T02281005  RH  021%=      5-min Rain = 0
KSVS 101830Z 23023G28KT 23/M01 A2961 RMK A01 T02301008  RH  021%=      5-min Rain = 0
KSVS 101835Z 23021G26KT 23/M01 A2961 RMK A01 T02331007  RH  021%=      5-min Rain = 0
KSVS 101840Z 23018G24KT 24/M01 A296 RMK A01 T02391006  RH  020%=      5-min Rain = 0
KSVS 101845Z 23019G26KT 24/M01 A296 RMK A01 T02381006  RH  020%=      5-min Rain = 0
KSVS 101850Z 23020G27KT 24/M01 A2959 RMK A01 T02371006  RH  020%=      5-min Rain = 0
KSVS 101855Z 23019G24KT 24/M01 A2959 RMK A01 T02381005  RH  020%=      5-min Rain = 0
KSVS 101900Z 24021G29KT 24/M01 A2958 RMK A01 T02401007  RH  020%=      5-min Rain = 0
KSVS 101905Z 24021G29KT 24/M01 A2958 RMK A01 T02371007  RH  020%=      5-min Rain = 0
KSVS 101910Z 24019G24KT 24/M01 A2958 RMK A01 T02391006  RH  020%=      5-min Rain = 0
KSVS 101915Z 24020G27KT 24/M01 A2958 RMK A01 T02391006  RH  020%=      5-min Rain = 0
KSVS 101920Z 24021G27KT 24/M01 A2957 RMK A01 T02391007  RH  020%=      5-min Rain = 0
KSVS 101925Z 25021G27KT 23/M01 A2957 RMK A01 T02341008  RH  020%=      5-min Rain = 0
KSVS 101930Z 25020G28KT 24/M01 A2957 RMK A01 T02351007  RH  020%=      5-min Rain = 0
KSVS 101935Z 24022G27KT 24/M01 A2956 RMK A01 T02381007  RH  020%=      5-min Rain = 0
KSVS 101940Z 24019G24KT 24/M01 A2956 RMK A01 T02401007  RH  020%=      5-min Rain = 0
KSVS 101945Z 25019G26KT 24/M01 A2955 RMK A01 T02411008  RH  020%=      5-min Rain = 0
KSVS 101950Z 23018G24KT 24/M01 A2955 RMK A01 T02411009  RH  019%=      5-min Rain = 0
KSVS 101955Z 24018G24KT 24/M01 A2954 RMK A01 T02401008  RH  020%=      5-min Rain = 0
KSVS 102000Z 25018G26KT 24/M01 A2954 RMK A01 T02421010  RH  019%=      5-min Rain = 0
KSVS 102005Z 25019G24KT 24/M02 A2953 RMK A01 T02411015  RH  018%=      5-min Rain = 0
KSVS 102010Z 24018KT 25/M02 A2953 RMK A01 T02451017  RH  018%=      5-min Rain = 0
KSVS 102015Z 24022G30KT 24/M02 A2952 RMK A01 T02421021  RH  018%=      5-min Rain = 0
KSVS 102020Z 24019G26KT 24/M02 A2952 RMK A01 T02411022  RH  018%=      5-min Rain = 0
KSVS 102025Z 24020G27KT 24/M02 A2952 RMK A01 T02431024  RH  017%=      5-min Rain = 0
KSVS 102030Z 24022G34KT 24/M03 A2952 RMK A01 T02401028  RH  017%=      5-min Rain = 0
KSVS 102035Z 24024G30KT 24/M03 A2952 RMK A01 T02421028  RH  017%=      5-min Rain = 0
KSVS 102040Z 24026G33KT 24/M03 A2951 RMK A01 T02391028  RH  017%=      5-min Rain = 0
KSVS 102045Z 23023G30KT 24/M03 A2952 RMK A01 T02391027  RH  017%=      5-min Rain = 0
KSVS 102050Z 22023G29KT 24/M03 A2952 RMK A01 T02381025  RH  017%=      5-min Rain = 0
KSVS 102055Z 22021G28KT 24/M02 A2951 RMK A01 T02401021  RH  018%=      5-min Rain = 0
KSVS 102100Z 23021G27KT 24/M02 A2951 RMK A01 T02421021  RH  018%=      5-min Rain = 0
KSVS 102105Z 23023G29KT 24/M02 A2951 RMK A01 T02381022  RH  018%=      5-min Rain = 0
KSVS 102110Z 23018G29KT 24/M02 A295 RMK A01 T02381021  RH  018%=      5-min Rain = 0
KSVS 102115Z 22020G28KT 23/M02 A295 RMK A01 T02321021  RH  019%=      5-min Rain = 0
KSVS 102120Z 23022G32KT 23/M02 A295 RMK A01 T02301020  RH  019%=      5-min Rain = 0
KSVS 102125Z 22020G30KT 23/M02 A295 RMK A01 T02321018  RH  019%=      5-min Rain = 0
KSVS 102130Z 23022G32KT 23/M02 A295 RMK A01 T02331017  RH  019%=      5-min Rain = 0
KSVS 102135Z 23023G29KT 23/M02 A2951 RMK A01 T02311018  RH  019%=      5-min Rain = 0
KSVS 102140Z 22023G31KT 23/M02 A2951 RMK A01 T02281021  RH  019%=      5-min Rain = 0
KSVS 102145Z 22026G34KT 22/M03 A2951 RMK A01 T02231026  RH  019%=      5-min Rain = 0
KSVS 102150Z 22021G29KT 22/M03 A2951 RMK A01 T02161031  RH  019%=      5-min Rain = 0
KSVS 102155Z 22021G27KT 22/M02 A2951 RMK A01 T02191023  RH  020%=      5-min Rain = 0
KSVS 102200Z 22023G32KT 23/M03 A2951 RMK A01 T02251028  RH  018%=      5-min Rain = 0
KSVS 102205Z 21023G31KT 22/M03 A2951 RMK A01 T02201031  RH  019%=      5-min Rain = 0
KSVS 102210Z 22024G31KT 21/M04 A2951 RMK A01 T02131040  RH  018%=      5-min Rain = 0
KSVS 102215Z 22022G30KT 21/M04 A2951 RMK A01 T02121038  RH  019%=      5-min Rain = 0
KSVS 102220Z 22022G30KT 22/M03 A2951 RMK A01 T02201031  RH  019%=      5-min Rain = 0
KSVS 102225Z 23023G32KT 22/M02 A2951 RMK A01 T02211024  RH  020%=      5-min Rain = 0
KSVS 102230Z 24025G33KT 22/M02 A2951 RMK A01 T02151022  RH  020%=      5-min Rain = 0
KSVS 102235Z 23024G32KT 21/M02 A2951 RMK A01 T02121021  RH  021%=      5-min Rain = 0
KSVS 102240Z 24026G34KT 21/M02 A2951 RMK A01 T02091017  RH  022%=      5-min Rain = 0
KSVS 102245Z 23025G33KT 21/M02 A2951 RMK A01 T02061016  RH  023%=      5-min Rain = 0
KSVS 102250Z 23025G34KT 20/M02 A2951 RMK A01 T02021015  RH  023%=      5-min Rain = 0
KSVS 102255Z 24026G34KT 20/M01 A2951 RMK A01 T01971009  RH  025%=      5-min Rain = 0
KSVS 102300Z 24026G33KT 19/M00 A2951 RMK A01 T01931004  RH  027%=      5-min Rain = 0
KSVS 102305Z 23026G37KT 19/M00 A2951 RMK A01 T01901001  RH  028%=      5-min Rain = 0
KSVS 102310Z 24025G35KT 19/00 A2951 RMK A01 T01870002  RH  029%=      5-min Rain = 0
KSVS 102315Z 24023G28KT 19/00 A2951 RMK A01 T01850004  RH  030%=      5-min Rain = 0
KSVS 102320Z 24021G26KT 18/01 A2952 RMK A01 T01810006  RH  031%=      5-min Rain = 0
KSVS 102325Z 24021G28KT 18/01 A2952 RMK A01 T01800008  RH  032%=      5-min Rain = 0
KSVS 102330Z 25021G27KT 18/01 A2952 RMK A01 T01770008  RH  032%=      5-min Rain = 0
KSVS 102335Z 24018G23KT 17/01 A2952 RMK A01 T01740008  RH  033%=      5-min Rain = 0
KSVS 102340Z 24016G21KT 17/01 A2952 RMK A01 T01690008  RH  034%=      5-min Rain = 0
KSVS 102345Z 24018G27KT 17/01 A2952 RMK A01 T01670008  RH  035%=      5-min Rain = 0
KSVS 102350Z 24016G22KT 16/01 A2952 RMK A01 T01640009  RH  035%=      5-min Rain = 0
KSVS 102355Z 24018G24KT 16/01 A2952 RMK A01 T01620010  RH  036%=      5-min Rain = 0
KSVS 110000Z 24018G25KT 16/01 A2952 RMK A01 T01600009  RH  036%=      5-min Rain = 0
KSVS 110005Z 23020G25KT 16/01 A2952 RMK A01 T01590008  RH  036%=      5-min Rain = 0
KSVS 110010Z 24017G24KT 16/01 A2952 RMK A01 T01550007  RH  037%=      5-min Rain = 0
KSVS 110015Z 24015KT 15/01 A2952 RMK A01 T01490005  RH  038%=      5-min Rain = 0
KSVS 110020Z 24017G22KT 15/01 A2952 RMK A01 T01490005  RH  038%=      5-min Rain = 0
KSVS 110025Z 24017KT 15/01 A2952 RMK A01 T01480005  RH  038%=      5-min Rain = 0
KSVS 110030Z 24017KT 15/01 A2952 RMK A01 T01460005  RH  039%=      5-min Rain = 0
KSVS 110035Z 24016KT 14/01 A2951 RMK A01 T01420005  RH  039%=      5-min Rain = 0
KSVS 110040Z 24016KT 14/00 A2951 RMK A01 T01400003  RH  040%=      5-min Rain = 0
KSVS 110045Z 24016G21KT 14/00 A2952 RMK A01 T01380000  RH  039%=      5-min Rain = 0
KSVS 110050Z 24017G25KT 14/M00 A2951 RMK A01 T01351002  RH  039%=      5-min Rain = 0
KSVS 110055Z 24017KT 13/M00 A2951 RMK A01 T01341004  RH  039%=      5-min Rain = 0
KSVS 110100Z 24017G22KT 13/M00 A2951 RMK A01 T01321004  RH  040%=      5-min Rain = 0
KSVS 110105Z 24018G23KT 13/M00 A2951 RMK A01 T01321002  RH  040%=      5-min Rain = 0
KSVS 110110Z 24017KT 13/M00 A2951 RMK A01 T01311001  RH  041%=      5-min Rain = 0
KSVS 110115Z 23019G25KT 13/M00 A2952 RMK A01 T01301001  RH  041%=      5-min Rain = 0
KSVS 110120Z 23018G25KT 13/M00 A2952 RMK A01 T01301001  RH  041%=      5-min Rain = 0
KSVS 110125Z 23019G26KT 13/M00 A2953 RMK A01 T01291001  RH  041%=      5-min Rain = 0
KSVS 110130Z 23019G25KT 13/M00 A2953 RMK A01 T01281002  RH  041%=      5-min Rain = 0
KSVS 110135Z 23019KT 13/M00 A2953 RMK A01 T01281003  RH  041%=      5-min Rain = 0
KSVS 110140Z 22018G24KT 13/M00 A2953 RMK A01 T01261003  RH  041%=      5-min Rain = 0
KSVS 110145Z 21017G22KT 13/M00 A2954 RMK A01 T01251004  RH  041%=      5-min Rain = 0
KSVS 110150Z 20015G21KT 12/M01 A2955 RMK A01 T01231005  RH  042%=      5-min Rain = 0
KSVS 110155Z 20014G19KT 12/M01 A2955 RMK A01 T01211005  RH  042%=      5-min Rain = 0
KSVS 110200Z 19015KT 12/M00 A2955 RMK A01 T01221003  RH  042%=      5-min Rain = 0
KSVS 110205Z 20013G18KT 12/M00 A2955 RMK A01 T01211002  RH  043%=      5-min Rain = 0
KSVS 110210Z 20012G17KT 12/M00 A2955 RMK A01 T01201002  RH  044%=      5-min Rain = 0
KSVS 110215Z 20011G17KT 12/M00 A2954 RMK A01 T01191001  RH  044%=      5-min Rain = 0
KSVS 110220Z 21011G16KT 12/00 A2954 RMK A01 T011800-0  RH  045%=      5-min Rain = 0
KSVS 110225Z 21011KT 12/00 A2954 RMK A01 T01170001  RH  045%=      5-min Rain = 0
KSVS 110230Z 21011KT 12/00 A2954 RMK A01 T01150002  RH  046%=      5-min Rain = 0
KSVS 110235Z 21013G18KT 12/00 A2954 RMK A01 T01170004  RH  046%=      5-min Rain = 0
KSVS 110240Z 20013G18KT 12/01 A2954 RMK A01 T01170005  RH  047%=      5-min Rain = 0
KSVS 110245Z 20014G19KT 12/01 A2954 RMK A01 T01190006  RH  046%=      5-min Rain = 0
KSVS 110250Z 20015G22KT 12/01 A2954 RMK A01 T01190006  RH  046%=      5-min Rain = 0
KSVS 110255Z 20017G22KT 12/00 A2953 RMK A01 T01190004  RH  046%=      5-min Rain = 0
KSVS 110300Z 21017G22KT 12/00 A2953 RMK A01 T01180004  RH  046%=      5-min Rain = 0
KSVS 110305Z 21017G25KT 12/01 A2952 RMK A01 T01170005  RH  047%=      5-min Rain = 0
KSVS 110310Z 21019G24KT 12/01 A2952 RMK A01 T01170006  RH  047%=      5-min Rain = 0
KSVS 110315Z 22017G22KT 12/01 A2952 RMK A01 T01170008  RH  048%=      5-min Rain = 0
KSVS 110320Z 22016G22KT 12/01 A2952 RMK A01 T01160008  RH  048%=      5-min Rain = 0
KSVS 110325Z 22018G23KT 12/01 A2952 RMK A01 T01160009  RH  048%=      5-min Rain = 0
KSVS 110330Z 22018KT 12/01 A2952 RMK A01 T01160008  RH  048%=      5-min Rain = 0
KSVS 110335Z 23017G22KT 12/01 A2951 RMK A01 T01170006  RH  047%=      5-min Rain = 0
KSVS 110340Z 23019G25KT 12/00 A2951 RMK A01 T01180004  RH  046%=      5-min Rain = 0
KSVS 110345Z 22020G25KT 12/01 A2951 RMK A01 T01180005  RH  046%=      5-min Rain = 0
KSVS 110350Z 22018KT 12/00 A2951 RMK A01 T01170004  RH  047%=      5-min Rain = 0
KSVS 110355Z 22017G22KT 12/00 A2951 RMK A01 T01160004  RH  047%=      5-min Rain = 0
KSVS 110400Z 22018G25KT 12/00 A2951 RMK A01 T01150003  RH  047%=      5-min Rain = 0
KSVS 110405Z 22017G24KT 11/00 A295 RMK A01 T01130004  RH  047%=      5-min Rain = 0
KSVS 110410Z 22018G23KT 11/00 A295 RMK A01 T01130003  RH  047%=      5-min Rain = 0
KSVS 110415Z 22018G23KT 11/00 A295 RMK A01 T01130002  RH  047%=      5-min Rain = 0
KSVS 110420Z 22017KT 11/00 A295 RMK A01 T01120000  RH  046%=      5-min Rain = 0
KSVS 110425Z 23015G22KT 11/M00 A295 RMK A01 T01121002  RH  046%=      5-min Rain = 0
KSVS 110430Z 23018G23KT 11/M00 A295 RMK A01 T01131004  RH  045%=      5-min Rain = 0
KSVS 110435Z 23019G24KT 11/M01 A295 RMK A01 T01131006  RH  044%=      5-min Rain = 0
KSVS 110440Z 23019G26KT 11/M01 A295 RMK A01 T01121008  RH  044%=      5-min Rain = 0
KSVS 110445Z 23019G26KT 11/M01 A295 RMK A01 T01121011  RH  043%=      5-min Rain = 0
KSVS 110450Z 23019G26KT 11/M01 A295 RMK A01 T01111014  RH  042%=      5-min Rain = 0
KSVS 110455Z 23021G28KT 11/M02 A295 RMK A01 T01101017  RH  041%=      5-min Rain = 0
KSVS 110500Z 23022G28KT 11/M02 A2949 RMK A01 T01091019  RH  041%=      5-min Rain = 0
KSVS 110505Z 23021G27KT 11/M02 A2949 RMK A01 T01061019  RH  042%=      5-min Rain = 0
KSVS 110510Z 23021G26KT 11/M02 A2949 RMK A01 T01051019  RH  042%=      5-min Rain = 0
KSVS 110515Z 22020G25KT 10/M02 A2949 RMK A01 T01031018  RH  043%=      5-min Rain = 0
KSVS 110520Z 22019G24KT 10/M02 A2949 RMK A01 T01001018  RH  044%=      5-min Rain = 0
KSVS 110525Z 22019G25KT 10/M02 A2949 RMK A01 T00991018  RH  045%=      5-min Rain = 0
KSVS 110530Z 22021G30KT 10/M02 A2949 RMK A01 T00981017  RH  045%=      5-min Rain = 0
KSVS 110535Z 22020G27KT 10/M02 A2949 RMK A01 T00981017  RH  045%=      5-min Rain = 0
KSVS 110540Z 22021G27KT 10/M02 A2949 RMK A01 T00971017  RH  046%=      5-min Rain = 0
KSVS 110545Z 22020G26KT 10/M02 A2949 RMK A01 T00961017  RH  046%=      5-min Rain = 0
KSVS 110550Z 22020G26KT 10/M02 A295 RMK A01 T00951016  RH  046%=      5-min Rain = 0
KSVS 110555Z 22020G27KT 09/M02 A2949 RMK A01 T00931016  RH  047%=      5-min Rain = 0

Page generated in 0.0291 seconds.